createdAt,value
2023-04-20T00:02:34.974Z,98427.94
2023-04-20T00:05:10.692Z,98425.19
2023-04-20T00:07:45.478Z,98419.17
2023-04-20T00:10:19.811Z,98415.73
2023-04-20T00:12:53.680Z,98418.83
2023-04-20T00:15:30.691Z,98412.81
2023-04-20T00:18:08.336Z,98411.95
2023-04-20T00:20:44.156Z,98405.42
2023-04-20T00:23:17.581Z,98400.60
2023-04-20T00:25:52.661Z,98388.75
2023-04-20T00:28:28.355Z,98391.67
2023-04-20T00:31:06.378Z,98385.99
2023-04-20T00:33:42.034Z,98381.02
2023-04-20T00:36:18.754Z,98376.74
2023-04-20T00:38:53.052Z,98370.04
2023-04-20T00:41:28.815Z,98370.21
2023-04-20T00:44:04.525Z,98364.36
2023-04-20T00:46:40.661Z,98361.61
2023-04-20T00:49:16.570Z,98356.46
2023-04-20T00:51:54.690Z,98353.36
2023-04-20T00:54:29.248Z,98348.20
2023-04-20T00:57:06.211Z,98344.42
2023-04-20T00:59:46.765Z,98339.80
2023-04-20T01:02:30.003Z,98335.48
2023-04-20T01:05:08.812Z,98330.86
2023-04-20T01:07:46.255Z,98330.00
2023-04-20T01:16:39.317Z,98321.91
2023-04-20T01:19:16.413Z,98318.64
2023-04-20T01:21:52.091Z,98315.20
2023-04-20T01:24:28.733Z,98317.25
2023-04-20T01:27:09.472Z,98317.23
2023-04-20T01:29:47.697Z,98311.54
2023-04-20T01:32:23.461Z,98316.67
2023-04-20T01:35:00.631Z,98314.09
2023-04-20T01:37:37.277Z,98309.29
2023-04-20T01:40:16.861Z,98307.55
2023-04-20T01:42:51.273Z,98301.02
2023-04-20T01:45:32.054Z,98296.03
2023-04-20T01:48:10.540Z,98290.70
2023-04-20T01:50:47.560Z,98293.80
2023-04-20T01:53:23.808Z,98282.30
2023-04-20T01:56:01.295Z,98282.68
2023-04-20T01:58:39.630Z,98282.52
2023-04-20T02:07:18.435Z,98287.72
2023-04-20T02:09:57.011Z,98282.92
2023-04-20T02:12:32.546Z,98290.31
2023-04-20T02:15:12.127Z,98289.80
2023-04-20T02:17:47.325Z,98286.02
2023-04-20T02:20:23.044Z,98288.92
2023-04-20T02:22:59.909Z,98292.36
2023-04-20T02:25:36.102Z,98287.90
2023-04-20T02:28:11.213Z,98289.42
2023-04-20T02:30:45.677Z,98288.73
2023-04-20T02:33:18.559Z,98283.94
2023-04-20T02:35:52.560Z,98279.83
2023-04-20T02:38:27.765Z,98277.94
2023-04-20T02:41:01.811Z,98278.44
2023-04-20T02:43:37.207Z,98276.04
2023-04-20T02:46:12.716Z,98275.85
2023-04-20T02:48:47.945Z,98270.55
2023-04-20T02:51:24.060Z,98249.77
2023-04-20T02:54:00.360Z,98264.52
2023-04-20T02:56:37.678Z,98258.17
2023-04-20T02:59:15.389Z,98254.76
2023-04-20T03:01:56.062Z,98253.21
2023-04-20T03:04:31.528Z,98248.91
2023-04-20T03:07:11.188Z,98245.48
2023-04-20T03:09:45.628Z,98247.35
2023-04-20T03:12:55.394Z,98243.23
2023-04-20T03:15:38.235Z,98237.05
2023-04-20T03:18:20.776Z,98241.16
2023-04-20T03:20:56.087Z,98241.34
2023-04-20T03:23:30.463Z,98240.65
2023-04-20T03:26:06.792Z,98240.30
2023-04-20T03:29:00.166Z,98239.77
2023-04-20T03:31:37.454Z,98243.38
2023-04-20T03:34:11.421Z,98244.39
2023-04-20T03:36:46.027Z,98242.16
2023-04-20T03:39:21.391Z,98241.12
2023-04-20T03:41:55.410Z,98238.71
2023-04-20T03:44:29.816Z,98241.44
2023-04-20T03:47:06.170Z,98238.16
2023-04-20T03:49:40.156Z,98240.72
2023-04-20T03:52:14.926Z,98238.80
2023-04-20T03:54:49.980Z,98238.29
2023-04-20T03:57:24.945Z,98236.71
2023-04-20T03:59:58.935Z,98240.13
2023-04-20T04:02:38.141Z,98239.73
2023-04-20T04:05:16.603Z,98247.06
2023-04-20T04:07:52.891Z,98245.82
2023-04-20T04:10:26.798Z,98244.96
2023-04-20T04:13:01.446Z,98247.33
2023-04-20T04:15:35.811Z,98247.97
2023-04-20T04:18:25.432Z,98249.10
2023-04-20T04:21:02.445Z,98247.52
2023-04-20T04:24:17.007Z,98244.59
2023-04-20T04:27:41.191Z,98246.94
2023-04-20T04:31:08.224Z,98251.34
2023-04-20T04:34:38.404Z,98249.60
2023-04-20T04:52:14.114Z,98236.30
2023-04-20T04:55:04.391Z,98236.08
2023-04-20T04:58:55.983Z,98236.74
2023-04-20T05:02:01.467Z,98234.88
2023-04-20T05:06:05.890Z,98234.41
2023-04-20T05:09:06.546Z,98237.66
2023-04-20T05:12:08.949Z,98236.09
2023-04-20T05:14:58.100Z,98234.55
2023-04-20T05:18:18.208Z,98237.01
2023-04-20T05:21:48.719Z,98235.13
2023-04-20T05:25:15.745Z,98232.38
2023-04-20T05:28:28.214Z,98234.53
2023-04-20T05:38:39.449Z,98239.91
2023-04-20T05:58:52.956Z,98240.75
2023-04-20T06:02:02.012Z,98243.87
2023-04-20T06:09:05.661Z,98246.31
2023-04-20T06:11:56.321Z,98249.91
2023-04-20T06:14:48.507Z,98254.68
2023-04-20T06:17:45.821Z,98253.80
2023-04-20T06:20:52.869Z,98248.33
2023-04-20T06:23:55.244Z,98243.37
2023-04-20T06:30:20.743Z,98244.77
2023-04-20T06:33:23.757Z,98243.59
2023-04-20T06:36:09.064Z,98243.10
2023-04-20T06:49:42.387Z,98245.67
2023-04-20T06:53:18.314Z,98247.90
2023-04-20T07:02:21.506Z,98244.20
2023-04-20T07:08:33.543Z,98240.34
2023-04-20T07:11:38.078Z,98242.59
2023-04-20T07:15:06.914Z,98240.88
2023-04-20T07:18:18.602Z,98236.62
2023-04-20T07:21:43.645Z,98232.71
2023-04-20T07:28:33.427Z,98223.98
2023-04-20T07:31:36.999Z,98219.85
2023-04-20T07:34:43.552Z,98217.80
2023-04-20T07:37:19.507Z,98220.72
2023-04-20T07:40:24.086Z,98219.70
2023-04-20T07:45:05.652Z,98229.12
2023-04-20T07:48:07.865Z,98241.46
2023-04-20T07:58:09.764Z,98240.12
2023-04-20T08:04:28.464Z,98240.87
2023-04-20T08:07:01.142Z,98236.60
2023-04-20T08:09:34.636Z,98231.80
2023-04-20T08:12:08.484Z,98239.34
2023-04-20T08:14:42.868Z,98243.81
2023-04-20T08:17:17.407Z,98240.55
2023-04-20T08:19:51.860Z,98240.38
2023-04-20T08:22:24.657Z,98237.80
2023-04-20T08:24:56.895Z,98236.59
2023-04-20T08:27:35.567Z,98243.11
2023-04-20T08:30:08.820Z,98243.80
2023-04-20T08:32:41.324Z,98238.30
2023-04-20T08:35:15.822Z,98232.61
2023-04-20T08:37:48.312Z,98234.68
2023-04-20T08:40:22.198Z,98233.31
2023-04-20T08:42:54.828Z,98236.02
2023-04-20T08:45:27.649Z,98227.92
2023-04-20T08:48:03.479Z,98225.35
2023-04-20T08:50:37.531Z,98228.38
2023-04-20T08:53:19.687Z,98227.30
2023-04-20T08:55:53.792Z,98229.14
2023-04-20T08:58:31.225Z,98227.31
2023-04-20T09:01:07.998Z,98227.14
2023-04-20T09:03:42.815Z,98217.02
2023-04-20T09:06:22.248Z,98220.58
2023-04-20T09:08:58.659Z,98219.29
2023-04-20T09:11:33.312Z,98217.83
2023-04-20T09:14:12.969Z,98219.46
2023-04-20T09:16:53.877Z,98220.04
2023-04-20T09:19:30.335Z,98215.95
2023-04-20T09:22:07.343Z,98211.75
2023-04-20T09:24:44.471Z,98210.41
2023-04-20T09:27:23.756Z,98209.67
2023-04-20T09:30:04.778Z,98203.50
2023-04-20T09:32:37.650Z,98205.46
2023-04-20T09:35:13.171Z,98205.25
2023-04-20T09:37:53.519Z,98198.16
2023-04-20T09:40:28.103Z,98197.04
2023-04-20T09:43:05.844Z,98189.66
2023-04-20T09:45:41.936Z,98188.24
2023-04-20T09:48:19.638Z,98184.09
2023-04-20T09:50:52.962Z,98178.17
2023-04-20T09:53:29.357Z,98180.38
2023-04-20T09:56:02.993Z,98174.38
2023-04-20T09:58:36.542Z,98172.61
2023-04-20T10:01:12.920Z,98164.50
2023-04-20T10:03:47.372Z,98153.08
2023-04-20T10:06:28.212Z,98152.73
2023-04-20T10:09:05.413Z,98145.31
2023-04-20T10:11:52.602Z,98145.53
2023-04-20T10:14:30.001Z,98138.27
2023-04-20T10:17:09.925Z,98134.92
2023-04-20T10:19:45.242Z,98126.73
2023-04-20T10:22:34.484Z,98120.05
2023-04-20T10:25:22.836Z,98115.48
2023-04-20T10:28:00.798Z,98112.88
2023-04-20T10:30:37.401Z,98116.21
2023-04-20T10:33:13.419Z,98115.61
2023-04-20T10:35:52.296Z,98113.67
2023-04-20T10:38:37.749Z,98111.96
2023-04-20T10:41:14.594Z,98108.73
2023-04-20T10:43:53.364Z,98103.27
2023-04-20T10:46:28.293Z,98099.67
2023-04-20T10:49:05.376Z,98093.02
2023-04-20T10:51:40.148Z,98088.48
2023-04-20T10:54:18.156Z,98084.30
2023-04-20T10:56:55.422Z,98086.41
2023-04-20T10:59:31.445Z,98086.71
2023-04-20T11:02:08.655Z,98085.14
2023-04-20T11:04:45.790Z,98088.40
2023-04-20T11:07:20.119Z,98082.73
2023-04-20T11:10:01.307Z,98073.45
2023-04-20T11:12:44.849Z,98067.52
2023-04-20T11:15:23.228Z,98069.28
2023-04-20T11:17:56.347Z,98067.69
2023-04-20T11:20:28.838Z,98066.27
2023-04-20T11:23:05.552Z,98059.13
2023-04-20T11:25:40.835Z,98046.52
2023-04-20T11:31:02.269Z,98052.84
2023-04-20T11:33:35.949Z,98052.93
2023-04-20T11:36:09.546Z,98064.04
2023-04-20T11:38:44.655Z,98071.36
2023-04-20T11:41:18.195Z,98072.63
2023-04-20T11:43:56.409Z,98066.05
2023-04-20T11:46:31.471Z,98058.34
2023-04-20T11:49:08.770Z,98053.10
2023-04-20T11:51:43.807Z,98051.62
2023-04-20T11:54:19.595Z,98052.98
2023-04-20T11:57:00.435Z,98044.88
2023-04-20T11:59:33.374Z,98042.02
2023-04-20T12:02:09.006Z,98045.33
2023-04-20T12:04:42.538Z,98043.95
2023-04-20T12:07:16.704Z,98040.79
2023-04-20T12:09:52.689Z,98039.70
2023-04-20T12:12:27.165Z,98040.92
2023-04-20T12:15:01.874Z,98043.80
2023-04-20T12:17:35.029Z,98046.61
2023-04-20T12:20:12.916Z,98042.08
2023-04-20T12:22:46.563Z,98038.59
2023-04-20T12:25:22.111Z,98038.14
2023-04-20T12:27:55.980Z,98031.05
2023-04-20T12:30:28.958Z,98027.11
2023-04-20T12:33:04.398Z,98022.60
2023-04-20T12:35:40.516Z,98014.56
2023-04-20T12:38:15.024Z,98011.90
2023-04-20T12:40:50.644Z,98015.02
2023-04-20T12:43:23.371Z,98010.11
2023-04-20T12:45:56.829Z,98018.05
2023-04-20T12:48:30.868Z,98012.92
2023-04-20T12:51:04.275Z,98000.52
2023-04-20T12:53:39.222Z,98006.29
2023-04-20T12:56:12.811Z,98009.30
2023-04-20T12:58:46.544Z,98007.45
2023-04-20T13:01:20.707Z,98002.71
2023-04-20T13:03:54.923Z,98000.30
2023-04-20T13:06:28.661Z,98000.13
2023-04-20T13:09:04.571Z,97997.20
2023-04-20T13:11:41.989Z,97998.77
2023-04-20T13:14:15.082Z,97998.77
2023-04-20T13:16:55.535Z,98001.23
2023-04-20T13:19:33.427Z,97996.87
2023-04-20T13:22:11.811Z,98007.50
2023-04-20T13:24:46.414Z,98010.55
2023-04-20T13:27:19.101Z,98001.71
2023-04-20T13:29:50.883Z,98003.15
2023-04-20T13:32:26.254Z,98011.36
2023-04-20T13:35:01.605Z,98017.76
2023-04-20T13:37:40.607Z,98023.77
2023-04-20T13:40:25.767Z,98020.82
2023-04-20T13:43:03.496Z,98025.54
2023-04-20T13:45:41.860Z,98023.25
2023-04-20T13:48:16.641Z,98028.14
2023-04-20T13:50:54.788Z,98024.86
2023-04-20T13:53:28.349Z,98030.77
2023-04-20T13:56:02.059Z,98031.79
2023-04-20T13:58:36.314Z,98032.11
2023-04-20T14:01:15.796Z,98041.95
2023-04-20T14:03:53.962Z,98042.05
2023-04-20T14:06:31.756Z,98039.42
2023-04-20T14:09:11.739Z,98027.59
2023-04-20T14:11:48.552Z,98038.80
2023-04-20T14:14:24.376Z,98045.90
2023-04-20T14:17:00.741Z,98040.47
2023-04-20T14:19:38.607Z,98045.55
2023-04-20T14:22:13.098Z,98041.14
2023-04-20T14:24:51.349Z,98054.48
2023-04-20T14:27:33.107Z,98051.29
2023-04-20T14:30:11.389Z,98051.64
2023-04-20T14:32:58.183Z,98046.83
2023-04-20T14:35:34.150Z,98044.98
2023-04-20T14:38:44.012Z,98040.80
2023-04-20T14:44:41.595Z,98032.38
2023-04-20T14:50:23.726Z,98029.83
2023-04-20T14:52:58.808Z,98024.29
2023-04-20T14:55:48.210Z,98025.55
2023-04-20T14:58:28.071Z,98019.82
2023-04-20T15:04:00.990Z,98025.38
2023-04-20T15:06:56.319Z,98019.65
2023-04-20T15:09:41.750Z,98024.41
2023-04-20T15:12:19.247Z,98022.46
2023-04-20T15:14:59.214Z,98015.63
2023-04-20T15:17:39.421Z,98016.02
2023-04-20T15:20:14.249Z,98019.04
2023-04-20T15:22:49.173Z,98014.79
2023-04-20T15:25:25.424Z,98008.27
2023-04-20T15:28:13.138Z,98016.02
2023-04-20T15:30:49.032Z,98014.15
2023-04-20T15:33:26.480Z,98017.60
2023-04-20T15:36:01.450Z,98024.77
2023-04-20T15:38:35.387Z,98017.33
2023-04-20T15:41:36.285Z,98026.05
2023-04-20T15:44:20.782Z,98018.55
2023-04-20T15:47:16.513Z,98016.23
2023-04-20T15:50:05.315Z,98021.08
2023-04-20T15:52:39.529Z,98020.46
2023-04-20T15:55:14.144Z,98023.08
2023-04-20T15:57:58.581Z,98024.84
2023-04-20T16:00:41.326Z,98022.09
2023-04-20T16:03:22.270Z,98019.87
2023-04-20T16:06:03.820Z,98023.69
2023-04-20T16:08:58.635Z,98028.35
2023-04-20T16:14:42.796Z,98033.91
2023-04-20T16:17:25.891Z,98032.45
2023-04-20T16:20:12.239Z,98038.48
2023-04-20T16:22:46.046Z,98041.40
2023-04-20T16:25:26.877Z,98040.72
2023-04-20T16:28:00.110Z,98042.31
2023-04-20T16:30:34.177Z,98054.10
2023-04-20T16:33:07.927Z,98053.31
2023-04-20T16:35:43.995Z,98053.37
2023-04-20T16:38:19.370Z,98055.70
2023-04-20T16:40:57.861Z,98055.63
2023-04-20T16:43:33.738Z,98058.96
2023-04-20T16:46:08.158Z,98049.13
2023-04-20T16:48:41.914Z,98051.04
2023-04-20T16:51:22.953Z,98043.23
2023-04-20T16:54:04.118Z,98043.11
2023-04-20T16:56:49.286Z,98033.64
2023-04-20T16:59:25.666Z,98046.70
2023-04-20T17:02:02.113Z,98042.63
2023-04-20T17:04:37.974Z,98036.93
2023-04-20T17:07:22.807Z,98035.20
2023-04-20T17:10:12.504Z,98032.80
2023-04-20T17:12:53.110Z,98032.45
2023-04-20T17:15:28.218Z,98028.39
2023-04-20T17:18:01.866Z,98025.52
2023-04-20T17:20:38.676Z,98020.10
2023-04-20T17:23:16.579Z,98019.46
2023-04-20T17:26:22.377Z,98021.42
2023-04-20T17:29:05.873Z,98021.85
2023-04-20T17:31:46.683Z,98024.64
2023-04-20T17:35:03.146Z,98028.23
2023-04-20T17:41:10.134Z,98026.10
2023-04-20T17:44:04.641Z,98030.91
2023-04-20T17:46:46.956Z,98033.14
2023-04-20T17:49:34.020Z,98026.11
2023-04-20T17:52:15.954Z,98028.17
2023-04-20T17:54:51.392Z,98030.60
2023-04-20T17:57:35.322Z,98033.86
2023-04-20T18:00:13.200Z,98028.39
2023-04-20T18:02:52.340Z,98029.45
2023-04-20T18:05:32.586Z,98035.31
2023-04-20T18:08:07.484Z,98035.67
2023-04-20T18:10:45.180Z,98045.14
2023-04-20T18:13:18.710Z,98047.58
2023-04-20T18:15:57.338Z,98051.17
2023-04-20T18:18:40.232Z,98051.33
2023-04-20T18:21:20.073Z,98048.56
2023-04-20T18:23:57.597Z,98052.53
2023-04-20T18:26:44.159Z,98052.88
2023-04-20T18:29:39.969Z,98051.33
2023-04-20T18:32:19.761Z,98052.35
2023-04-20T18:34:56.315Z,98058.73
2023-04-20T18:37:59.307Z,98061.66
2023-04-20T18:40:39.824Z,98060.81
2023-04-20T18:46:44.971Z,98067.20
2023-04-20T18:52:46.115Z,98083.04
2023-04-20T19:02:39.675Z,98097.48
2023-04-20T19:06:16.142Z,98091.17
2023-04-20T19:13:55.019Z,98108.24
2023-04-20T19:20:41.185Z,98091.94
2023-04-20T19:30:23.913Z,98100.90
2023-04-20T19:33:00.827Z,98099.38
2023-04-20T19:35:36.918Z,98096.81
2023-04-20T19:38:27.407Z,98120.84
2023-04-20T19:41:22.250Z,98120.17
2023-04-20T19:44:33.479Z,98119.12
2023-04-20T19:47:19.003Z,98114.84
2023-04-20T19:50:15.437Z,98116.20
2023-04-20T19:52:55.429Z,98109.34
2023-04-20T19:55:37.652Z,98111.56
2023-04-20T19:58:30.833Z,98111.39
2023-04-20T20:01:03.148Z,98116.36
2023-04-20T20:03:59.351Z,98106.55
2023-04-20T20:06:41.736Z,98102.77
2023-04-20T20:09:25.985Z,98105.52
2023-04-20T20:12:23.823Z,98105.50
2023-04-20T20:15:13.736Z,98105.16
2023-04-20T20:18:13.112Z,98103.09
2023-04-20T20:21:07.646Z,98101.70
2023-04-20T20:23:55.121Z,98102.04
2023-04-20T20:26:37.642Z,98106.66
2023-04-20T20:29:25.893Z,98103.73
2023-04-20T20:32:26.665Z,98101.02
2023-04-20T20:35:22.119Z,98096.03
2023-04-20T20:37:59.018Z,98095.35
2023-04-20T20:40:59.557Z,98089.66
2023-04-20T20:44:05.563Z,98083.31
2023-04-20T20:46:49.298Z,98088.30
2023-04-20T20:49:54.574Z,98081.09
2023-04-20T20:52:45.628Z,98077.98
2023-04-20T20:55:35.353Z,98074.55
2023-04-20T20:58:28.935Z,98066.46
2023-04-20T21:01:11.979Z,98064.56
2023-04-20T21:03:59.783Z,98075.38
2023-04-20T21:06:42.667Z,98069.54
2023-04-20T21:09:20.189Z,98047.91
2023-04-20T21:11:59.989Z,98056.98
2023-04-20T21:14:44.465Z,98060.21
2023-04-20T21:17:40.692Z,98073.08
2023-04-20T21:20:28.355Z,98076.34
2023-04-20T21:23:48.176Z,98064.30
2023-04-20T21:26:45.958Z,98072.21
2023-04-20T21:29:41.237Z,98070.98
2023-04-20T21:35:46.968Z,98069.39
2023-04-20T21:38:41.067Z,98083.63
2023-04-20T21:41:32.433Z,98095.16
2023-04-20T21:44:36.295Z,98092.58
2023-04-20T21:47:53.078Z,98083.80
2023-04-20T21:54:06.159Z,98068.28
2023-04-20T21:56:44.649Z,98047.84
2023-04-20T21:59:40.621Z,98033.77
2023-04-20T23:05:05.368Z,98017.08
2023-04-20T23:10:32.659Z,98016.72
2023-04-20T23:20:30.625Z,98004.80
2023-04-20T23:28:19.840Z,98005.27
2023-04-20T23:53:20.722Z,98010.88
2023-04-20T23:59:57.199Z,98005.80
